Moby Aki — IBVV — position and weather

sailwx.info

Track history (hours):
 
Tides and Currents Weather Stations Pressure Air Temp Water Temp Dewpoint Dewpoint Depression Visibility Wind Speed Wind Dir Waves Ship Positions

Moby Aki

Last reported at 2016-May-05 19:31 UTC. Time now 2016-May-05 19:56 UTC.
Position N 43°33' E 010°18'.

Length 175 m; draft 6.5 m.

Type: Passenger vessel. MMSI: 247132400.

Date/timePositionNaut miles runAvg speedWind from/ knotsBaromVisibWave heightAir tempDewpointWater temp
2016-May-05 19:31N 43°33' E 010°18'0 0.0
2016-May-05 18:31N 43°33' E 010°18'0 0.0
2016-May-05 17:31N 43°33' E 010°18'0 0.0
2016-May-05 16:31N 43°33' E 010°18'0 0.0
2016-May-05 15:31N 43°33' E 010°18'0 0.0
2016-May-05 14:33N 43°33' E 010°18'0 0.0
2016-May-05 13:33N 43°33' E 010°18'0 0.0
2016-May-05 12:33N 43°33' E 010°18'0 0.0
2016-May-05 11:33N 43°33' E 010°18'0 0.0
2016-May-05 10:33N 43°33' E 010°18'0 0.0
2016-May-05 09:33N 43°33' E 010°18'0 0.0
2016-May-05 08:33N 43°33' E 010°18'0 0.0
2016-May-05 07:33N 43°33' E 010°18'0 0.0
2016-May-05 06:33N 43°33' E 010°18'0 0.0
2016-May-05 05:33N 43°33' E 010°18'0 0.0
2016-May-05 04:33N 43°33' E 010°18'7 6.6
2016-May-05 03:33N 43°27' E 010°13'2222.3
2016-May-05 02:34N 43°06' E 010°04'2322.6
2016-May-05 01:33N 42°44' E 009°58'2221.8
2016-May-05 00:33N 42°22' E 009°56'4 0.2
2016-May-03 23:34N 42°27' E 009°56'2221.8
2016-May-03 22:34N 42°48' E 010°00'2221.9
2016-May-03 21:33N 43°09' E 010°07'2222.2
2016-May-03 20:33N 43°31' E 010°13'4 3.8
2016-May-03 19:29N 43°33' E 010°18'0 0.0
2016-May-03 18:32N 43°33' E 010°18'0 0.0
2016-May-03 17:32N 43°33' E 010°18'0 0.0
2016-May-03 16:32N 43°33' E 010°18'0 0.0
2016-May-03 15:32N 43°33' E 010°18'0 0.0
2016-May-03 14:31N 43°33' E 010°18'0 0.0
2016-May-03 13:31N 43°33' E 010°18'0 0.0
2016-May-03 12:31N 43°33' E 010°18'0 0.0
2016-May-03 11:31N 43°33' E 010°18'0 0.0
2016-May-03 10:31N 43°33' E 010°18'0 0.0
2016-May-03 09:33N 43°33' E 010°18'0 0.0
2016-May-03 08:33N 43°33' E 010°18'0 0.0
2016-May-03 07:33N 43°33' E 010°18'0 0.0
2016-May-03 06:33N 43°33' E 010°18'0 0.0
2016-May-03 05:33N 43°33' E 010°18'2 2.2
2016-May-03 04:34N 43°31' E 010°16'1616.0
2016-May-03 03:34N 43°16' E 010°09'2120.8
2016-May-03 02:33N 42°56' E 010°02'10 0.5
2016-May-02 07:33N 43°05' E 010°05'2625.7
2016-May-02 06:34N 43°30' E 010°12'5 4.7
2016-May-02 05:31N 43°33' E 010°18'0 0.0
2016-May-02 04:34N 43°33' E 010°18'8 8.0
2016-May-02 03:33N 43°26' E 010°12'2121.1
2016-May-02 02:33N 43°06' E 010°04'2 0.1
2016-May-01 07:33N 43°05' E 010°02'2625.9
2016-May-01 06:34N 43°30' E 010°12'5 5.0
2016-May-01 05:32N 43°33' E 010°18'0 0.0
2016-May-01 04:29N 43°33' E 010°18'9 9.2
2016-May-01 03:33N 43°26' E 010°12'101 5.9
2016-Apr-30 10:32N 41°47' E 009°46'2827.2
2016-Apr-30 09:31N 42°14' E 009°51'5327.0
2016-Apr-30 07:34N 43°06' E 010°03'2625.9
2016-Apr-30 06:33N 43°31' E 010°12'5 4.4
2016-Apr-30 05:31N 43°33' E 010°18'0 0.0
2016-Apr-30 04:32N 43°33' E 010°18'8 8.1
2016-Apr-30 03:33N 43°26' E 010°13'2221.9
2016-Apr-30 02:33N 43°05' E 010°06'30 1.1
2016-Apr-28 23:27N 42°35' E 009°58'1820.4
2016-Apr-28 22:33N 42°53' E 010°02'2121.1
2016-Apr-28 21:34N 43°14' E 010°08'1919.1
2016-Apr-28 20:34N 43°32' E 010°16'2 1.8
2016-Apr-28 19:32N 43°33' E 010°18'0 0.0
2016-Apr-28 18:32N 43°33' E 010°18'0 0.0
2016-Apr-28 17:32N 43°33' E 010°18'0 0.0
2016-Apr-28 16:33N 43°33' E 010°18'0 0.0
2016-Apr-28 15:33N 43°33' E 010°18'0 0.0
2016-Apr-28 14:33N 43°33' E 010°18'0 0.0
2016-Apr-28 13:33N 43°33' E 010°18'0 0.0
2016-Apr-28 12:33N 43°33' E 010°18'0 0.0
2016-Apr-28 11:31N 43°33' E 010°18'0 0.0
2016-Apr-28 10:28N 43°33' E 010°18'0 0.0
2016-Apr-28 09:31N 43°33' E 010°18'0 0.0
2016-Apr-28 08:31N 43°33' E 010°18'0 0.0
2016-Apr-28 07:31N 43°33' E 010°18'0 0.0
2016-Apr-28 06:31N 43°33' E 010°18'0 0.0
2016-Apr-28 05:33N 43°33' E 010°18'2 2.0
2016-Apr-28 04:33N 43°32' E 010°16'1716.7
2016-Apr-28 03:33N 43°17' E 010°05'22 0.8
2016-Apr-26 23:34N 42°56' E 009°59'2423.7
2016-Apr-26 22:34N 43°18' E 010°09'1616.2
2016-Apr-26 21:33N 43°33' E 010°18'0 0.0
2016-Apr-26 20:33N 43°33' E 010°18'2 2.3
2016-Apr-26 19:34N 43°31' E 010°16'1110.8
2016-Apr-26 18:34N 43°22' E 010°08'2524.5
2016-Apr-26 17:33N 42°59' E 009°57'10 0.5
2016-Apr-25 22:34N 43°08' E 010°04'2423.6
2016-Apr-25 21:33N 43°30' E 010°13'5 4.5
2016-Apr-25 20:32N 43°33' E 010°18'0 0.0
2016-Apr-25 19:32N 43°33' E 010°18'  
Track history (hours):
 
Tides and Currents Weather Stations Pressure Air Temp Water Temp Dewpoint Dewpoint Depression Visibility Wind Speed Wind Dir Waves Ship Positions

Moby Aki

Last reported at 2016-May-05 19:31 UTC. Time now 2016-May-05 19:56 UTC.
Position N 43°33' E 010°18'.

Length 175 m; draft 6.5 m.

Type: Passenger vessel. MMSI: 247132400.

Date/timePositionNaut miles runAvg speedWind from/ knotsBaromVisibWave heightAir tempDewpointWater temp
2016-May-05 19:31N 43°33' E 010°18'0 0.0
2016-May-05 18:31N 43°33' E 010°18'0 0.0
2016-May-05 17:31N 43°33' E 010°18'0 0.0
2016-May-05 16:31N 43°33' E 010°18'0 0.0
2016-May-05 15:31N 43°33' E 010°18'0 0.0
2016-May-05 14:33N 43°33' E 010°18'0 0.0
2016-May-05 13:33N 43°33' E 010°18'0 0.0
2016-May-05 12:33N 43°33' E 010°18'0 0.0
2016-May-05 11:33N 43°33' E 010°18'0 0.0
2016-May-05 10:33N 43°33' E 010°18'0 0.0
2016-May-05 09:33N 43°33' E 010°18'0 0.0
2016-May-05 08:33N 43°33' E 010°18'0 0.0
2016-May-05 07:33N 43°33' E 010°18'0 0.0
2016-May-05 06:33N 43°33' E 010°18'0 0.0
2016-May-05 05:33N 43°33' E 010°18'0 0.0
2016-May-05 04:33N 43°33' E 010°18'7 6.6
2016-May-05 03:33N 43°27' E 010°13'2222.3
2016-May-05 02:34N 43°06' E 010°04'2322.6
2016-May-05 01:33N 42°44' E 009°58'2221.8
2016-May-05 00:33N 42°22' E 009°56'4 0.2
2016-May-03 23:34N 42°27' E 009°56'2221.8
2016-May-03 22:34N 42°48' E 010°00'2221.9
2016-May-03 21:33N 43°09' E 010°07'2222.2
2016-May-03 20:33N 43°31' E 010°13'4 3.8
2016-May-03 19:29N 43°33' E 010°18'0 0.0
2016-May-03 18:32N 43°33' E 010°18'0 0.0
2016-May-03 17:32N 43°33' E 010°18'0 0.0
2016-May-03 16:32N 43°33' E 010°18'0 0.0
2016-May-03 15:32N 43°33' E 010°18'0 0.0
2016-May-03 14:31N 43°33' E 010°18'0 0.0
2016-May-03 13:31N 43°33' E 010°18'0 0.0
2016-May-03 12:31N 43°33' E 010°18'0 0.0
2016-May-03 11:31N 43°33' E 010°18'0 0.0
2016-May-03 10:31N 43°33' E 010°18'0 0.0
2016-May-03 09:33N 43°33' E 010°18'0 0.0
2016-May-03 08:33N 43°33' E 010°18'0 0.0
2016-May-03 07:33N 43°33' E 010°18'0 0.0
2016-May-03 06:33N 43°33' E 010°18'0 0.0
2016-May-03 05:33N 43°33' E 010°18'2 2.2
2016-May-03 04:34N 43°31' E 010°16'1616.0
2016-May-03 03:34N 43°16' E 010°09'2120.8
2016-May-03 02:33N 42°56' E 010°02'10 0.5
2016-May-02 07:33N 43°05' E 010°05'2625.7
2016-May-02 06:34N 43°30' E 010°12'5 4.7
2016-May-02 05:31N 43°33' E 010°18'0 0.0
2016-May-02 04:34N 43°33' E 010°18'8 8.0
2016-May-02 03:33N 43°26' E 010°12'2121.1
2016-May-02 02:33N 43°06' E 010°04'2 0.1
2016-May-01 07:33N 43°05' E 010°02'2625.9
2016-May-01 06:34N 43°30' E 010°12'5 5.0
2016-May-01 05:32N 43°33' E 010°18'0 0.0
2016-May-01 04:29N 43°33' E 010°18'9 9.2
2016-May-01 03:33N 43°26' E 010°12'101 5.9
2016-Apr-30 10:32N 41°47' E 009°46'2827.2
2016-Apr-30 09:31N 42°14' E 009°51'5327.0
2016-Apr-30 07:34N 43°06' E 010°03'2625.9
2016-Apr-30 06:33N 43°31' E 010°12'5 4.4
2016-Apr-30 05:31N 43°33' E 010°18'0 0.0
2016-Apr-30 04:32N 43°33' E 010°18'8 8.1
2016-Apr-30 03:33N 43°26' E 010°13'2221.9
2016-Apr-30 02:33N 43°05' E 010°06'30 1.1
2016-Apr-28 23:27N 42°35' E 009°58'1820.4
2016-Apr-28 22:33N 42°53' E 010°02'2121.1
2016-Apr-28 21:34N 43°14' E 010°08'1919.1
2016-Apr-28 20:34N 43°32' E 010°16'2 1.8
2016-Apr-28 19:32N 43°33' E 010°18'0 0.0
2016-Apr-28 18:32N 43°33' E 010°18'0 0.0
2016-Apr-28 17:32N 43°33' E 010°18'0 0.0
2016-Apr-28 16:33N 43°33' E 010°18'0 0.0
2016-Apr-28 15:33N 43°33' E 010°18'0 0.0
2016-Apr-28 14:33N 43°33' E 010°18'0 0.0
2016-Apr-28 13:33N 43°33' E 010°18'0 0.0
2016-Apr-28 12:33N 43°33' E 010°18'0 0.0
2016-Apr-28 11:31N 43°33' E 010°18'0 0.0
2016-Apr-28 10:28N 43°33' E 010°18'0 0.0
2016-Apr-28 09:31N 43°33' E 010°18'0 0.0
2016-Apr-28 08:31N 43°33' E 010°18'0 0.0
2016-Apr-28 07:31N 43°33' E 010°18'0 0.0
2016-Apr-28 06:31N 43°33' E 010°18'0 0.0
2016-Apr-28 05:33N 43°33' E 010°18'2 2.0
2016-Apr-28 04:33N 43°32' E 010°16'1716.7
2016-Apr-28 03:33N 43°17' E 010°05'22 0.8
2016-Apr-26 23:34N 42°56' E 009°59'2423.7
2016-Apr-26 22:34N 43°18' E 010°09'1616.2
2016-Apr-26 21:33N 43°33' E 010°18'0 0.0
2016-Apr-26 20:33N 43°33' E 010°18'2 2.3
2016-Apr-26 19:34N 43°31' E 010°16'1110.8
2016-Apr-26 18:34N 43°22' E 010°08'2524.5
2016-Apr-26 17:33N 42°59' E 009°57'10 0.5
2016-Apr-25 22:34N 43°08' E 010°04'2423.6
2016-Apr-25 21:33N 43°30' E 010°13'5 4.5
2016-Apr-25 20:32N 43°33' E 010°18'0 0.0
2016-Apr-25 19:32N 43°33' E 010°18'  

Dump ship's entire track history